WetterOnline ( https://www.wetteronline.de )

Wetter aktuell Tamm

Aktuelles Wetter: Schnarrenberg/Stuttgart (315m)

6-stündlich | Neueste Meldungen
Ortszeit Temperatur Wetter
So, 22.05. 8:00 13.7° C leicht bewölkt
So, 22.05. 2:00 12.3° C wolkenlos
Sa, 21.05. 20:00 19.2° C wolkig
Sa, 21.05. 14:00 19.8° C fast wolkenlos
Sa, 21.05. 8:00 14.0° C leicht bewölkt
Sa, 21.05. 2:00 17.8° C leicht bewölkt
Fr, 20.05. 20:00 26.8° C bewölkt
Fr, 20.05. 14:00 29.6° C wolkig
Ortszeit Temperatur Wetter
So, 22.05. 9:30 17.1° C wolkig
So, 22.05. 9:20 17.1° C wolkig
So, 22.05. 9:10 17.4° C bedeckt
So, 22.05. 9:00 15.9° C leicht bewölkt
So, 22.05. 8:50 15.9° C wolkig
So, 22.05. 8:40 15.6° C bedeckt
So, 22.05. 8:30 14.9° C wolkig
So, 22.05. 8:00 13.7° C leicht bewölkt
So, 22.05. 7:30 12.5° C wolkig
So, 22.05. 7:00 11.7° C wolkig
So, 22.05. 6:30 11.3° C wolkig
Ortszeit Relative Feuchte Sichtweite
So, 22.05. 8:00 72% 55 km
So, 22.05. 2:00 82% 45 km
Sa, 21.05. 20:00 48% 60 km
Sa, 21.05. 14:00 46% 65 km
Sa, 21.05. 8:00 69% >70 km
Sa, 21.05. 2:00 75% 65 km
Fr, 20.05. 20:00 46% 55 km
Fr, 20.05. 14:00 43% 60 km
Ortszeit Relative Feuchte Sichtweite
So, 22.05. 9:30 56% >70 km
So, 22.05. 9:20 56% -
So, 22.05. 9:10 59% -
So, 22.05. 9:00 62% 55 km
So, 22.05. 8:50 62% -
So, 22.05. 8:40 64% -
So, 22.05. 8:30 67% 65 km
So, 22.05. 8:00 72% 55 km
So, 22.05. 7:30 77% 50 km
So, 22.05. 7:00 81% >70 km
So, 22.05. 6:30 84% 50 km
Ortszeit Niederschlagsmenge Niederschlagsart
So, 22.05. 8:00 0.0 l/m2 in 12 Std. -
So, 22.05. 2:00 0.0 l/m2 in 6 Std. -
Sa, 21.05. 20:00 0.0 l/m2 in 12 Std. -
Sa, 21.05. 14:00 0.0 l/m2 in 6 Std. -
Sa, 21.05. 8:00 0.5 l/m2 in 12 Std. Sprühregen
Sa, 21.05. 2:00 0.5 l/m2 in 6 Std. Regen
Fr, 20.05. 20:00 0.1 l/m2 in 12 Std. Regen
Fr, 20.05. 14:00 0.0 l/m2 in 6 Std. -
Ortszeit Niederschlagsmenge Niederschlagsart
So, 22.05. 9:30 0.0 l/m2 in 1 Std. -
So, 22.05. 9:20 keine Meldung -
So, 22.05. 9:10 keine Meldung -
So, 22.05. 9:00 0.0 l/m2 in 1 Std. -
So, 22.05. 8:50 keine Meldung -
So, 22.05. 8:40 keine Meldung -
So, 22.05. 8:30 0.0 l/m2 in 1 Std. -
So, 22.05. 8:00 0.0 l/m2 in 1 Std. -
So, 22.05. 7:30 0.0 l/m2 in 1 Std. -
So, 22.05. 7:00 0.0 l/m2 in 1 Std. -
So, 22.05. 6:30 0.0 l/m2 in 1 Std. -
Ortszeit Stärke Spitze Richtung
km/h Bft. km/h Grad Sektor
So, 22.05. 8:00 7 2 20 110° O
So, 22.05. 2:00 0 0 14 - -
Sa, 21.05. 20:00 9 2 35 340° N
Sa, 21.05. 14:00 18 3 36 330° NW
Sa, 21.05. 8:00 17 3 37 290° W
Sa, 21.05. 2:00 15 3 63 270° W
Fr, 20.05. 20:00 7 2 50 230° SW
Fr, 20.05. 14:00 9 2 33 350° N
Ortszeit Stärke Spitze Richtung
km/h Bft. km/h Grad Sektor
So, 22.05. 9:30 7 2 14 140° SO
So, 22.05. 9:20 7 2 - 140° SO
So, 22.05. 9:10 6 1 - 100° O
So, 22.05. 9:00 6 1 13 120° SO
So, 22.05. 8:50 6 1 - 120° SO
So, 22.05. 8:40 7 2 - 130° SO
So, 22.05. 8:30 7 2 11 120° SO
So, 22.05. 8:00 7 2 13 110° O
So, 22.05. 7:30 9 2 13 120° SO
So, 22.05. 7:00 9 2 19 130° SO
So, 22.05. 6:30 14 3 18 140° SO
Ortszeit Untergrenze Bedeckung Gattung
total tief tief mittel hoch
So, 22.05. 8:00 7500 m 8/8 0/8 - - -
So, 22.05. 2:00 - 0/8 0/8 - - -
Sa, 21.05. 20:00 5100 m 7/8 7/8 - - -
Sa, 21.05. 14:00 9000 m 1/8 0/8 - - -
Sa, 21.05. 8:00 8700 m 5/8 0/8 - - -
Sa, 21.05. 2:00 3600 m 2/8 2/8 - - -
Fr, 20.05. 20:00 3900 m 8/8 5/8 - - -
Fr, 20.05. 14:00 5100 m 7/8 7/8 - - -
Ortszeit Bedeckungsgrad in Achtel und Wolkenuntergrenze
So, 22.05. 9:30 7(7800m)
So, 22.05. 9:20 7(7800m)
So, 22.05. 9:10 8
So, 22.05. 9:00 8(8100m)
So, 22.05. 8:50 8(8100m)
So, 22.05. 8:40 8
So, 22.05. 8:30 7(8100m) 7(8700m)
So, 22.05. 8:00 8(7500m) 8(8100m)
So, 22.05. 7:30 8(7500m) 8(8400m)
So, 22.05. 7:00 5(6900m)
So, 22.05. 6:30 1(6900m) 6(9000m) 7(9000m)
Ortszeit Luftdruck NN (hPa) Tendenz (hPa in 3 Std.)
So, 22.05. 8:00 1018 - 0,9
So, 22.05. 2:00 1020 - 0,5
Sa, 21.05. 20:00 1020 - 1,2
Sa, 21.05. 14:00 1022 - 1,2
Sa, 21.05. 8:00 1024 + 0,9
Sa, 21.05. 2:00 1021 + 1,7
Fr, 20.05. 20:00 1014 - 0,9
Fr, 20.05. 14:00 1016 - 2,8
Ortszeit Luftdruck NN (hPa) Tendenz (hPa in 3 Std.)
So, 22.05. 9:30 1017 - 0,3
So, 22.05. 9:20 1017 keine Meldung
So, 22.05. 9:10 1017 keine Meldung
So, 22.05. 9:00 1017 - 0,6
So, 22.05. 8:50 1017 keine Meldung
So, 22.05. 8:40 1017 keine Meldung
So, 22.05. 8:30 1017 - 0,7
So, 22.05. 8:00 1018 - 0,9
So, 22.05. 7:30 1018 - 1,1
So, 22.05. 7:00 1018 - 1,1
So, 22.05. 6:30 1018 - 1,0
Ortszeit Schneehöhe (cm)
So, 22.05. 8:00 0
So, 22.05. 2:00 0
Sa, 21.05. 20:00 0
Sa, 21.05. 14:00 0
Sa, 21.05. 8:00 0
Sa, 21.05. 2:00 0
Fr, 20.05. 20:00 0
Fr, 20.05. 14:00 0
Ortszeit Schneehöhe (cm)
So, 22.05. 9:30 -
So, 22.05. 9:20 0
So, 22.05. 9:10 0
So, 22.05. 9:00 0
So, 22.05. 8:50 0
So, 22.05. 8:40 0
So, 22.05. 8:30 0
So, 22.05. 8:00 0
So, 22.05. 7:30 0
So, 22.05. 7:00 0
So, 22.05. 6:30 0
Link zu dieser Seite / Seite empfehlen

Das Wetter in ...